Tiempo atmosférico en la estación meteorológica de Vitoria Gasteiz Aeropuerto Foronda, Araba/Álava (513 m.)



Fecha
DESCASC
Temp. máxima en grados centígrados (hora)
DESCASC
Temp. mínima en grados centígrados (hora)
DESCASC
Temp. media en grados centígrados
DESCASC
Racha de viento máxima en m/sg (hora)
DESCASC
Velocidad máxima media en intervalos de 10 minutos(hora)
DESCASC
Precipitaciones diarias en mm
DESCASC
Precipitaciones de 00:00 a 06:00 en mm
DESCASC
Precipitaciones de 06:00 a 12:00 en mm
DESCASC
Precipitaciones de 12:00 a 18:00 en mm
DESCASC
Precipitaciones de 18:00 a 24:00 en mm
DESCASC

Gráficas

Temp. máximas Temp. mínimas Temp. medias Precipitaciones Rachas de viento máximas Velocidades máximas media en intervalos de 10 minutos

Datos horarios

Fecha y hora oficial Temperatura (ºC) Velocidad del viento (km/h) Dirección del viento Racha (km/h) Dirección de racha Precipitación (mm) Presión (hPa) Tendencia (hPa) Humedad (%)
2019-12-07 23:00:00 2.7 5 Este 9 Este 0 964.5 0.1 98
2019-12-07 22:00:00 3.5 5 Sudeste -- -- 0 964.4 0.5 98
2019-12-07 21:00:00 3.9 5 Norte 9 Norte 0 964.4 1.1 96
2019-12-07 20:00:00 5.9 3 Oeste 5 Norte 0 964.4 1.7 95
2019-12-07 19:00:00 6.4 7 Norte 9 Norte 0 963.9 1.1 91
2019-12-07 18:00:00 8.9 0 Calma 15 Sudoeste 0 963.3 0.4 80
2019-12-07 17:00:00 12.5 10 Sudoeste 17 Sudoeste 0 962.7 -0.6 67
2019-12-07 16:00:00 13.9 12 Sudoeste 17 Oeste 0 962.8 -1.3 59
2019-12-07 15:00:00 14.2 6 Sudoeste 13 Oeste 0 962.9 -1.9 58
2019-12-07 14:00:00 12.6 3 Sur 9 Sudeste 0 963.3 -1.8 67
2019-12-07 13:00:00 9.2 3 Norte 13 Nordeste 0 964.1 -0.8 81
2019-12-07 12:00:00 6.5 3 Sudoeste 8 Sudoeste 0 964.8 0.5 92
2019-12-07 11:00:00 3.9 3 Este 9 Este 0 965.1 1.1 100
2019-12-07 10:00:00 2 3 Este 5 Nordeste 0 964.9 1.5 100
2019-12-07 09:00:00 0.4 3 Noroeste 4 Noroeste 0 964.3 1.1 100
2019-12-07 08:00:00 -0.1 0 Calma 8 Oeste 0 964 0.9 99
2019-12-07 07:00:00 0.7 0 Calma 8 Nordeste 0 963.4 0 99
2019-12-07 06:00:00 0.4 3 Noroeste 13 Nordeste 0 963.2 -0.3 99
2019-12-07 05:00:00 0.7 13 Nordeste 15 Norte 0 963.1 -0.5 99
2019-12-07 04:00:00 1.1 0 Calma 5 Oeste 0 963.4 -0.6 98
2019-12-07 03:00:00 2.6 3 Norte 9 Nordeste 0 963.5 -0.9 97
2019-12-07 02:00:00 4 4 Nordeste 8 Nordeste 0 963.6 -0.2 98
2019-12-07 01:00:00 3.8 6 Norte 8 Norte 0 964 0.6 98
2019-12-07 00:00:00 3.2 4 Nordeste 9 Nordeste 0 964.4 1.4 98
2019-12-06 23:00:00 2.1 6 Norte 9 Nordeste 0 963.8 1 97
2019-12-06 22:00:00 2.7 7 Este 11 Norte 0 963.4 0.8 97
2019-12-06 21:00:00 3.6 5 Este 8 Este 0 963 0.9 95
2019-12-06 20:00:00 4.5 9 Sur 13 Sur 0 962.8 0.9 90
2019-12-06 19:00:00 6.1 3 Nordeste 13 Sudoeste 0 962.6 0.8 90
2019-12-06 18:00:00 8 9 Sudoeste 13 Sudoeste 0 962.1 0 84
2019-12-06 17:00:00 10.3 4 Oeste 18 Sudoeste 0 961.9 -1 72
2019-12-06 16:00:00 11.3 15 Sudoeste 22 Sudoeste 0 961.8 -1.7 68
2019-12-06 15:00:00 11.9 17 Sudoeste 22 Sudoeste 0 962.1 -2.3 65
2019-12-06 14:00:00 9.6 2 Oeste 8 Norte 0 962.9 -1.9 81
2019-12-06 13:00:00 5.8 4 Nordeste 9 Este 0 963.5 -1 99
2019-12-06 12:00:00 3.9 2 Sudeste 9 Sudeste 0 964.4 0.3 100
2019-12-06 11:00:00 2.9 3 Sudeste 5 Sudeste 0 964.8 0.9 100
2019-12-06 10:00:00 2.3 4 Sur 9 Oeste 0 964.5 0.9 100
2019-12-06 09:00:00 1.7 4 Este 8 Este 0 964.1 0.6 100
2019-12-06 08:00:00 1.8 2 Este 5 Este 0 963.9 0.2 100
2019-12-06 07:00:00 1.4 4 Este 5 Este 0 963.6 -0.1 100
2019-12-06 06:00:00 1.1 3 Sudeste -- -- 0 963.5 -0.3 100
2019-12-06 05:00:00 0.4 0 Calma 8 Noroeste 0 963.7 -0.2 100
2019-12-06 04:00:00 -0.7 0 Calma 5 Este 0 963.7 -0.3 99
2019-12-06 03:00:00 -0.3 4 Norte 8 Oeste 0 963.8 -0.1 99
2019-12-06 02:00:00 0.3 0 Calma -- -- 0 963.9 -0.4 98
2019-12-06 01:00:00 0.4 7 Nordeste 9 Nordeste 0 964 -0.4 98
2019-12-06 00:00:00 1.4 4 Nordeste 8 Norte 0 963.9 -0.6 98
2019-12-05 23:00:00 2.3 2 Sur 11 Oeste 0 964.3 0.1 97
2019-12-05 22:00:00 3.4 7 Oeste 11 Oeste 0 964.4 0.7 94
2019-12-05 21:00:00 3 4 Este 8 Norte 0 964.5 1.6 95
2019-12-05 20:00:00 4.9 4 Norte 9 Nordeste 0 964.2 1.6 91
2019-12-05 19:00:00 5 4 Nordeste 11 Norte 0 963.7 1.4 94
2019-12-05 18:00:00 6.4 11 Nordeste 17 Norte 0 962.9 0.5 86
2019-12-05 17:00:00 9.7 13 Norte 28 Norte 0 962.6 0.1 73
2019-12-05 16:00:00 10.8 18 Norte 28 Norte 0 962.3 -0.4 68
2019-12-05 15:00:00 11.2 19 Norte 30 Norte 0 962.4 -0.6 67
2019-12-05 14:00:00 10.4 18 Norte 30 Norte 0 962.5 -0.4 68
2019-12-05 13:00:00 10.1 17 Norte 30 Norte 0 962.7 0.4 71
2019-12-05 12:00:00 10.5 15 Norte 21 Norte 0 963 1.3 71
2019-12-05 11:00:00 9.4 9 Nordeste 18 Norte 0 962.9 1.8 74
2019-12-05 10:00:00 7.7 9 Nordeste 13 Nordeste 0 962.3 2 82
2019-12-05 09:00:00 7 9 Norte 24 Norte 0 961.7 2.2 82
2019-12-05 08:00:00 6.6 14 Norte 21 Nordeste 0 961.1 2.1 87
2019-12-05 07:00:00 6.2 14 Norte 28 Norte 0 960.3 1.7 88
2019-12-05 06:00:00 6.5 14 Norte 24 Nordeste 0 959.5 1.4 86
2019-12-05 05:00:00 6.5 13 Nordeste 24 Norte 0 959 0.8 88
2019-12-05 04:00:00 6.4 13 Norte 18 Nordeste 0 958.6 0.8 89
2019-12-05 03:00:00 6.4 8 Norte 21 Norte 0 958.1 1 86
2019-12-05 02:00:00 6.5 3 Sudeste 15 Sudeste 0 958.2 1.4 92
2019-12-05 01:00:00 6.3 10 Sudeste 15 Sudeste 0 957.8 1.8 90
2019-12-05 00:00:00 6.6 9 Norte 28 Nordeste 0 957.1 1.3 84
2019-12-04 23:00:00 6.7 9 Nordeste 26 Nordeste 0 956.8 0.8 81
2019-12-04 22:00:00 7 12 Noroeste 26 Noroeste 0 956 0.3 90
2019-12-04 21:00:00 7.4 19 Noroeste 30 Noroeste 0 955.8 0.8 83
2019-12-04 20:00:00 7.1 9 Norte 22 Norte 0 956 1.8 85
2019-12-04 19:00:00 6.2 0 Calma 13 Nordeste 0 955.7 1.9 86
2019-12-04 18:00:00 5.7 8 Norte 24 Norte 0 955 1.4 84
2019-12-04 17:00:00 8.9 14 Norte 30 Norte 0 954.2 0.7 70
2019-12-04 16:00:00 10.5 12 Norte 21 Noroeste 0 953.8 -0.1 69
2019-12-04 15:00:00 10.3 4 Este 9 Este 0 953.6 -1.2 71
2019-12-04 14:00:00 7.8 4 Nordeste 9 Este 0 953.5 -1.4 76
2019-12-04 13:00:00 5.4 4 Este 8 Este 0 953.9 -1.2 82
2019-12-04 12:00:00 3.8 2 Noroeste 8 Noroeste 0 954.8 0.3 89
2019-12-04 11:00:00 2.1 3 Sudeste 8 Sudeste 0 954.9 0.8 92
2019-12-04 10:00:00 -0.1 2 Sudoeste -- -- 0 955.1 1.2 96
2019-12-04 09:00:00 -1.8 5 Noroeste 9 Este 0 954.5 0.7 97
2019-12-04 08:00:00 -1.9 3 Este 13 Nordeste 0 954.1 -0.8 97
2019-12-04 07:00:00 -2.5 9 Nordeste 11 Nordeste 0 953.9 -1.4 96
2019-12-04 06:00:00 -0.8 3 Oeste 11 Oeste 0 953.8 -1.9 98
2019-12-04 05:00:00 -2 3 Nordeste 8 Nordeste 0 954.9 -1.5 97
2019-12-04 04:00:00 -1.7 3 Noroeste 8 Oeste 0 955.3 -1.9 99
2019-12-04 03:00:00 -2.1 0 Calma 8 Noroeste 0 955.7 -1.9 98
2019-12-04 02:00:00 -2.2 0 Calma 5 Norte 0 956.4 -1.4 97
2019-12-04 01:00:00 -1.5 0 Calma 8 Norte 0 957.2 -0.3 98
2019-12-04 00:00:00 -1.4 5 Nordeste 9 Norte 0 957.6 -0.1 97
2019-12-03 23:00:00 -1 3 Norte 8 Este 0 957.8 -0.1 97
2019-12-03 22:00:00 -0.7 0 Calma 13 Oeste 0 957.5 0 96
2019-12-03 21:00:00 -0.2 9 Oeste 11 Oeste 0 957.7 0.1 96
2019-12-03 20:00:00 0.1 9 Nordeste 13 Nordeste 0 957.9 0.2 95
2019-12-03 19:00:00 1.9 6 Norte -- -- 0 957.5 -0.4 93
2019-12-03 18:00:00 3.2 6 Norte 13 Nordeste 0 957.6 -0.5 85
2019-12-03 17:00:00 5 5 Nordeste 9 Nordeste 0 957.7 -0.9 73
2019-12-03 16:00:00 5 6 Nordeste 15 Este 0 957.9 -1.5 72
2019-12-03 15:00:00 5.3 11 Nordeste 21 Nordeste 0 958.1 -2.2 76
2019-12-03 14:00:00 5.5 15 Norte 26 Norte 0 958.6 -2.2 71
2019-12-03 13:00:00 5.7 16 Norte 24 Norte 0 959.4 -1.3 75
2019-12-03 12:00:00 5.6 15 Norte 22 Norte 0 960.3 -0.4 77
2019-12-03 11:00:00 4.7 14 Norte 22 Norte 0 960.8 -0.3 84
2019-12-03 10:00:00 4.1 13 Norte 21 Norte 0 960.7 -0.3 91
2019-12-03 09:00:00 3.8 9 Norte 13 Norte 0 960.7 -0.4 92
2019-12-03 08:00:00 3.7 6 Norte 18 Norte 0.3 961.1 -0.4 93
2019-12-03 07:00:00 3.6 3 Norte 9 Norte 0.3 961 -0.9 96
2019-12-03 06:00:00 3.5 6 Norte 11 Norte 0 961.1 -0.9 93
2019-12-03 05:00:00 3.5 4 Norte 11 Norte 0 961.5 -0.7 91
2019-12-03 04:00:00 3.5 8 Norte 18 Norte 0 961.9 -0.7 91
2019-12-03 03:00:00 3.5 13 Norte 21 Norte 0.3 962 -1 91
2019-12-03 02:00:00 3.8 9 Norte 28 Norte 0 962.2 -0.9 91
2019-12-03 01:00:00 4.1 10 Norte 22 Norte 0 962.6 -0.8 91
2019-12-03 00:00:00 4.2 12 Norte 26 Norte 0 963 -0.5 88
2019-12-02 23:00:00 4.3 13 Norte 26 Norte 0 963.1 -0.5 86
2019-12-02 22:00:00 4.3 13 Norte 30 Norte 0 963.4 0.3 88
2019-12-02 21:00:00 4.7 13 Norte 22 Norte 0 963.5 0.6 84
2019-12-02 20:00:00 4.4 13 Norte 22 Norte 0 963.6 1.2 89
2019-12-02 19:00:00 4.5 10 Norte 26 Norte 0 963.1 1.1 81
2019-12-02 18:00:00 4.7 17 Norte 32 Norte 0 962.9 1.6 82
2019-12-02 17:00:00 5.3 21 Norte 30 Norte 0 962.4 1 85
2019-12-02 16:00:00 5.8 21 Norte 35 Norte 0 962 0.7 85
2019-12-02 15:00:00 6.6 19 Norte 33 Norte 0 961.3 -0.1 88
2019-12-02 14:00:00 7.1 18 Norte 28 Norte 0 961.4 0.1 89
2019-12-02 13:00:00 7.4 15 Norte 24 Norte 0.1 961.3 0.5 93
2019-12-02 12:00:00 7.9 14 Norte 24 Norte 0 961.4 1.1 89
2019-12-02 11:00:00 7.8 10 Norte 21 Norte 0 961.3 1.6 89
2019-12-02 10:00:00 7.6 10 Norte 21 Norte 0 960.8 1.7 93
2019-12-02 09:00:00 6.7 13 Norte 22 Norte 0.4 960.3 1.8 95
2019-12-02 08:00:00 6.4 5 Norte 8 Norte 0.6 959.7 1.3 97
2019-12-02 07:00:00 6.8 6 Norte 18 Norte 0 959.1 0.9 94
2019-12-02 06:00:00 6.5 9 Norte 18 Nordeste 0 958.5 0.7 95
2019-12-02 05:00:00 6.5 8 Norte 13 Norte 0.1 958.4 0.7 95
2019-12-02 04:00:00 6.4 10 Norte 17 Norte 0 958.2 0.7 93
2019-12-02 03:00:00 6.5 11 Norte 17 Norte 0 957.8 0.7 94
2019-12-02 02:00:00 6.1 0 Calma 15 Noroeste 0 957.7 0.9 96
2019-12-02 01:00:00 6.4 8 Nordeste 13 Noroeste 0 957.5 1 96
2019-12-02 00:00:00 6.6 12 Noroeste 15 Noroeste 0 957.1 1.3 94
2019-12-01 23:00:00 6.3 10 Noroeste 13 Noroeste 0.1 956.8 1.6 96
2019-12-01 22:00:00 6.9 9 Norte 13 Norte 0.5 956.5 2 94
2019-12-01 21:00:00 6.5 3 Norte 8 Norte 0 955.8 1.9 96
2019-12-01 20:00:00 6.5 4 Nordeste 8 Noroeste 0 955.2 1.8 96
2019-12-01 19:00:00 6.3 9 Noroeste 11 Norte 0 954.5 1.5 92
2019-12-01 18:00:00 8.7 6 Oeste 11 Nordeste 0 953.9 1.1 86
2019-12-01 17:00:00 9.3 4 Oeste 13 Norte 0 953.4 0.2 86
2019-12-01 16:00:00 10.4 16 Norte 24 Norte 0 953 -0.3 71
2019-12-01 15:00:00 12.3 5 Noroeste 11 Norte 0 952.8 -0.8 68
2019-12-01 14:00:00 10.8 0 Calma 5 Nordeste 0 953.2 -0.3 73
2019-12-01 13:00:00 10.4 5 Nordeste 11 Nordeste 0 953.3 0.2 77
2019-12-01 12:00:00 9.4 3 Sur 8 Sur 0 953.6 1 82
2019-12-01 11:00:00 7.1 2 Este 9 Norte 0 953.5 1 93
2019-12-01 10:00:00 5.3 3 Norte 9 Norte 0 953.1 1.2 98
2019-12-01 09:00:00 3.5 4 Nordeste 11 Nordeste 0 952.6 0.7 98
2019-12-01 08:00:00 3.1 10 Nordeste 13 Nordeste 0 952.5 0.5 98
2019-12-01 07:00:00 2.9 3 Sudeste 15 Nordeste 0 951.9 -0.5 98
2019-12-01 06:00:00 3.2 5 Este 17 Norte 0 951.9 -1 97
2019-12-01 05:00:00 4.2 7 Nordeste 18 Oeste 0 952 -1 93
2019-12-01 04:00:00 3.3 7 Nordeste 13 Nordeste 0 952.4 -1.4 99
2019-12-01 03:00:00 3.8 7 Noroeste 13 Norte 0 952.9 -1.4 100
2019-12-01 02:00:00 4.4 0 Calma -- -- -- 953 -1.2 100
2019-12-01 01:00:00 5 3 Oeste 9 Oeste 0 953.8 -0.7 100
2019-12-01 00:00:00 5.3 3 Nordeste 11 Nordeste 0 954.3 -0.4 100
2019-11-30 23:00:00 4.7 6 Nordeste 9 Este 0 954.2 -0.1 99
2019-11-30 22:00:00 4.1 4 Nordeste 9 Oeste 0 954.5 -0.1 99
2019-11-30 21:00:00 4.8 6 Oeste 11 Nordeste 0 954.7 0.3 98
2019-11-30 20:00:00 6.1 8 Nordeste 9 Norte 0 954.3 -0.1 97
2019-11-30 19:00:00 7.7 6 Noroeste 22 Sudeste 0 954.6 -0.4 96
2019-11-30 18:00:00 8.1 13 Este 22 Este 1.8 954.4 0.1 97
2019-11-30 17:00:00 8.6 10 Nordeste 17 Norte 1.4 954.4 0.1 96
2019-11-30 16:00:00 8.8 5 Este 15 Este 4.9 955 0.1 97
2019-11-30 15:00:00 8.9 8 Nordeste 32 Norte 11.3 954.3 -1.4 97
2019-11-30 14:00:00 10.2 21 Norte 32 Norte 1 954.3 -1.9 94
2019-11-30 13:00:00 12.3 0 Calma 5 Sur 0.1 954.9 -1.1 83
2019-11-30 12:00:00 12.1 5 Sudoeste 9 Sur 0 955.7 -0.2 82
2019-11-30 11:00:00 12.5 5 Sudoeste 21 Sudoeste 0 956.2 0 78
2019-11-30 10:00:00 12.2 16 Sudoeste 24 Sudoeste 0 956 -0.5 82
2019-11-30 09:00:00 10.3 11 Sudoeste 21 Sudoeste 0 955.9 -1.1 88
2019-11-30 08:00:00 10.2 6 Norte 11 Norte 0 956.2 -1.3 88
2019-11-30 07:00:00 9.6 5 Noroeste 13 Norte 0 956.5 -1.3 91
2019-11-30 06:00:00 8.2 6 Nordeste 15 Nordeste 0 957 -1.2 95
2019-11-30 05:00:00 6.9 3 Oeste 15 Nordeste 0 957.5 -1.3 99
2019-11-30 04:00:00 5.8 4 Sudeste 9 Nordeste 0 957.8 -1.7 99
2019-11-30 03:00:00 5.1 5 Nordeste 9 Nordeste 0 958.2 -2 99
2019-11-30 02:00:00 4.4 4 Este 8 Este 0 958.8 -1.6 99
2019-11-30 01:00:00 3.7 4 Sudoeste 9 Nordeste 0 959.5 -1 99
2019-11-30 00:00:00 3.9 4 Nordeste 9 Nordeste 0 960.2 -0.3 99
2019-11-29 23:00:00 4.2 2 Sudoeste 5 Sudoeste 0 960.4 -0.1 99
2019-11-29 22:00:00 5.2 0 Calma 4 Este 0 960.5 0.4 98
2019-11-29 21:00:00 6.1 2 Noroeste 5 Este 0 960.5 0.6 97
2019-11-29 20:00:00 6.3 5 Sur 11 Sur 0 960.5 0.8 93
2019-11-29 19:00:00 8.4 4 Nordeste 5 Este 0 960.1 0.5 93
2019-11-29 18:00:00 10.8 0 Calma -- -- 0 959.9 0.1 83
2019-11-29 17:00:00 15.1 4 Nordeste 8 Este 0 959.7 -0.6 62
2019-11-29 16:00:00 15.5 2 Nordeste 11 Nordeste 0 959.6 -1.1 60
2019-11-29 15:00:00 15 4 Nordeste 9 Este 0 959.8 -1.4 62
2019-11-29 14:00:00 14 3 Este 13 Este 0 960.3 -0.8 66
2019-11-29 13:00:00 14.7 4 Este 11 Este 0 960.7 0.2 65
2019-11-29 12:00:00 14.2 5 Sudeste 13 Nordeste 0 961.2 1.5 70
2019-11-29 11:00:00 12.4 9 Nordeste 15 Nordeste 0 961.1 2.1 82
2019-11-29 10:00:00 10.8 3 Oeste 13 Oeste 0 960.5 2.4 90
2019-11-29 09:00:00 10.6 4 Oeste 13 Norte 0 959.7 2.1 90
2019-11-29 08:00:00 10.8 11 Norte 18 Norte 0 959 2.2 89
2019-11-29 07:00:00 10.6 6 Oeste 13 Noroeste 0 958.1 1.9 91
2019-11-29 06:00:00 10.6 5 Noroeste 17 Noroeste 0 957.6 1.9 92
2019-11-29 05:00:00 10.8 6 Oeste 13 Oeste 0 956.8 1.9 93
2019-11-29 04:00:00 10.5 6 Noroeste 11 Noroeste 0 956.2 1.9 94
2019-11-29 03:00:00 11.2 8 Oeste 18 Noroeste 0.8 955.7 1.9 96
2019-11-29 02:00:00 12.1 8 Oeste 18 Sur 0 954.9 1.4 88
2019-11-29 01:00:00 12 13 Sudoeste 24 Sudoeste 0 954.3 1.1 88
2019-11-29 00:00:00 11.8 13 Sudoeste 21 Sudoeste 0 953.8 0.7 89
2019-11-28 23:00:00 12.1 5 Sur 18 Sur 0 953.5 0.9 86
2019-11-28 22:00:00 11.8 9 Sudoeste 30 Sudoeste 0 953.2 0.8 87
2019-11-28 21:00:00 11.5 4 Sur 18 Sudoeste 0 953.1 0.6 89
2019-11-28 20:00:00 11.5 12 Sudoeste 24 Sudoeste 0.1 952.6 0.5 89
2019-11-28 19:00:00 11.3 6 Sudoeste 21 Sudoeste 0.9 952.4 0.6 91
2019-11-28 18:00:00 11.8 17 Sudoeste 24 Oeste 0.8 952.5 0.2 88
2019-11-28 17:00:00 12.7 15 Sudoeste 30 Sudoeste 0 952.1 -0.4 80
2019-11-28 16:00:00 12.3 18 Sudoeste 45 Sudoeste 0 951.8 -0.8 83
2019-11-28 15:00:00 12.9 25 Sudoeste 42 Sudoeste 0 952.3 -1.3 78
2019-11-28 14:00:00 12.5 31 Sudoeste 45 Sudoeste 0 952.5 -1.2 82
2019-11-28 13:00:00 12.9 30 Sudoeste 42 Sudoeste 0 952.6 -0.8 80
2019-11-28 12:00:00 12.7 19 Sudoeste 32 Sudoeste 0 953.6 0.9 81
2019-11-28 11:00:00 12.4 20 Sudoeste 30 Sudoeste 0 953.7 1.7 82
2019-11-28 10:00:00 11.9 21 Sudoeste 33 Sudoeste 0 953.4 1.7 84
2019-11-28 09:00:00 11.3 22 Sudoeste 32 Sudoeste 0 952.7 1.5 84
2019-11-28 08:00:00 10.8 19 Sudoeste 28 Sudoeste 0 952 0.9 85
2019-11-28 07:00:00 9.8 10 Oeste 30 Sur 0 951.7 1.1 81
2019-11-28 06:00:00 10.4 10 Sur 18 Sur 0 951.2 0.9 80
2019-11-28 05:00:00 9.3 6 Oeste 33 Sudoeste 0 951.1 0.6 82
2019-11-28 04:00:00 10.3 26 Sudoeste 39 Sudoeste 0 950.6 0.4 81
2019-11-28 03:00:00 10.6 23 Sudoeste 39 Sudoeste 0 950.3 -0.1 80
2019-11-28 02:00:00 10.6 19 Sudoeste 39 Oeste 0 950.5 0.1 78
2019-11-28 01:00:00 10.3 25 Sudoeste 42 Sudoeste 0 950.2 0.1 79
2019-11-28 00:00:00 10.3 8 Oeste 22 Sudoeste 0 950.4 0 79
2019-11-27 23:00:00 10.4 5 Sudoeste 21 Oeste 0 950.4 0 79
2019-11-27 22:00:00 10 3 Sudoeste 13 Norte 0 950.1 -0.2 85
2019-11-27 21:00:00 9.2 5 Norte 9 Norte 0 950.4 0.8 86
2019-11-27 20:00:00 9.3 4 Oeste 13 Sudoeste 0 950.4 0.8 85
2019-11-27 19:00:00 9.7 3 Oeste 17 Sudoeste 0 950.3 1.1 88
2019-11-27 18:00:00 9.9 4 Noroeste 30 Sudoeste 0.1 949.6 0.6 90
2019-11-27 17:00:00 10.3 19 Sudoeste 30 Sudoeste 0.1 949.6 0.6 88
2019-11-27 16:00:00 10.9 21 Sudoeste 46 Sudoeste 0 949.2 -0.3 82
2019-11-27 15:00:00 12.2 24 Sudoeste 41 Sudoeste 0 949 -1 71
2019-11-27 14:00:00 12.7 24 Sudoeste 37 Sudoeste 0 949 -0.9 69
2019-11-27 06:00:00 10 22 Sudoeste 39 Sudoeste 0 946.9 1.7 72
2019-11-27 05:00:00 9.8 22 Sudoeste 45 Sudoeste 0 946.6 1.3 73
2019-11-27 04:00:00 10.4 30 Sudoeste 52 Sudoeste 0 945.9 1.3 69
2019-11-27 03:00:00 11.2 36 Sudoeste 55 Sudoeste 0 945.2 1.3 70
2019-11-27 02:00:00 12.3 26 Sudoeste 42 Sudoeste 0 945.3 1.2 67
2019-11-27 01:00:00 12.5 33 Sudoeste 58 Sudoeste 0 944.6 0.7 70
2019-11-27 00:00:00 12.8 31 Sudoeste 52 Sudoeste 0 943.9 0.3 74
2019-11-26 23:00:00 12.9 28 Sudoeste 76 Sudoeste 0.1 944.1 1.5 76
2019-11-26 22:00:00 14.9 56 Sudoeste 78 Sudoeste 0 943.9 1.3 63
2019-11-26 21:00:00 15 37 Sudoeste 74 Sudoeste 0 943.6 0.6 67
2019-11-26 20:00:00 15.6 39 Sudoeste 59 Sudoeste 0 942.6 -1.4 72
2019-11-26 19:00:00 15.7 35 Sudoeste 59 Sudoeste 0 942.6 -2.3 71
2019-11-26 18:00:00 15.1 5 Sur 15 Sur 0 943 -3.3 72
2019-11-26 17:00:00 15.9 14 Sur 45 Sudoeste 0 944 -3.7 69
2019-11-26 16:00:00 16.2 20 Sur 35 Sur 0 944.9 -3.6 72
2019-11-26 15:00:00 15.7 23 Sudoeste 37 Sudoeste 0 946.3 -3.3 74
2019-11-26 14:00:00 15.3 15 Sudoeste 33 Sudoeste 0 947.7 -2.5 74
2019-11-26 13:00:00 14.3 13 Sudoeste 30 Sudoeste 0 948.5 -2.2 77
2019-11-26 12:00:00 13.7 12 Oeste 39 Sudoeste 0 949.6 -1.6 79
2019-11-26 11:00:00 12.6 18 Sur 30 Sudoeste 0 950.2 -1.1 82
2019-11-26 10:00:00 13.7 8 Sudoeste 15 Sudoeste 0 950.7 -0.4 78
2019-11-26 09:00:00 12.9 10 Sur 35 Sudoeste 0 951.2 0.1 78
2019-11-26 08:00:00 12.7 16 Sudoeste 30 Sudoeste 0 951.3 -0.1 77
2019-11-26 07:00:00 12.6 17 Sudoeste 41 Sudoeste 0 951.1 -0.4 76
2019-11-26 06:00:00 12.5 31 Sudoeste 45 Sudoeste 0 951.1 -1 75
2019-11-26 05:00:00 12.5 31 Sudoeste 52 Sudoeste 0 951.4 -0.9 75
2019-11-26 04:00:00 12 29 Sudoeste 45 Sudoeste 0 951.5 -1.6 76
2019-11-26 03:00:00 11.5 21 Sudoeste 37 Sudoeste 0 952.1 -1 76
2019-11-26 02:00:00 10.9 16 Sudoeste 33 Sudoeste 0 952.3 -1.1 79
2019-11-26 01:00:00 10.9 17 Sudoeste 35 Sudoeste 0 953.1 -0.8 79
2019-11-26 00:00:00 11 19 Sudoeste 28 Sudoeste 0 953.1 -0.9 81
2019-11-25 23:00:00 10.2 15 Sudoeste 26 Sudoeste 0 953.4 -0.3 86
2019-11-25 22:00:00 6.7 4 Nordeste 13 Norte 0 953.9 0.2 97
2019-11-25 21:00:00 8.8 2 Norte 11 Norte 0 954 0.7 95
2019-11-25 20:00:00 9.8 5 Nordeste 15 Norte 0 953.7 0.8 95
2019-11-25 19:00:00 10.4 8 Norte 15 Nordeste 0 953.7 1.1 91
2019-11-25 18:00:00 12 11 Norte 15 Norte 0 953.3 1.2 86
2019-11-25 17:00:00 13.9 7 Sudoeste 24 Sudoeste 0 952.9 0.4 72
2019-11-25 16:00:00 15.3 18 Sudoeste 35 Sudoeste 0 952.6 0.1 63
2019-11-25 15:00:00 16.7 19 Sudoeste 32 Sudoeste 0 952.1 -0.7 58
2019-11-25 14:00:00 16.8 11 Oeste 30 Oeste 0 952.5 -0.2 61
2019-11-25 13:00:00 16.1 24 Sudoeste 32 Sudoeste -- 952.5 0.1 66
2019-11-25 12:00:00 16 20 Sudoeste 28 Sudoeste -- 952.8 0.7 70
2019-11-25 11:00:00 14.2 18 Sudoeste 26 Sudoeste 0 952.7 1.3 75
2019-11-25 10:00:00 12.2 8 Sudoeste 15 Sur 0 952.4 1.3 81
2019-11-25 09:00:00 9.9 14 Sur 21 Sur 0 952.1 1.3 89
2019-11-25 08:00:00 8.1 6 Norte 18 Sudoeste 0 951.4 0.8 92
2019-11-25 07:00:00 9.1 13 Sur 32 Sudoeste 0 951.1 0.6 88
2019-11-25 06:00:00 9.5 23 Sudoeste 41 Oeste 0 950.8 0.1 87
2019-11-25 05:00:00 8.6 13 Oeste 28 Oeste 0 950.6 -0.4 89
2019-11-25 04:00:00 9.1 18 Sudoeste 30 Sudoeste 0 950.5 -0.7 87
2019-11-25 03:00:00 9.3 18 Sudoeste 30 Sudoeste 0 950.7 -0.8 88
2019-11-25 02:00:00 9.4 14 Sudoeste 24 Oeste 0 951 -0.8 86
2019-11-25 01:00:00 9.4 10 Sudoeste 28 Sudoeste 0 951.2 -0.5 87
2019-11-25 00:00:00 9.4 18 Sudoeste 30 Sur 0 951.5 0.1 86
2019-11-24 23:00:00 8.4 8 Sudoeste 22 Sudoeste 0.1 951.8 0.6 89
2019-11-24 22:00:00 8.4 17 Sudoeste 37 Sudoeste 1.7 951.7 -0.2 91
2019-11-24 21:00:00 9.3 16 Sudoeste 32 Sudoeste 0 951.4 -0.3 76
2019-11-24 20:00:00 8.8 18 Sudoeste 30 Sudoeste 0 951.2 -0.8 76
2019-11-24 19:00:00 8.8 12 Oeste 28 Sudoeste 0 951.9 -0.3 73
2019-11-24 18:00:00 8.6 21 Sudoeste 32 Sudoeste 0 951.7 -0.9 72
2019-11-24 17:00:00 9.6 17 Sudoeste 35 Sudoeste 0 952 -0.9 70
2019-11-24 16:00:00 10.1 22 Sudoeste 30 Sudoeste 0 952.2 -1.3 68
2019-11-24 15:00:00 10 22 Sudoeste 35 Sudoeste 0 952.6 -1.6 67
2019-11-24 14:00:00 11 22 Sudoeste 33 Sudoeste 0 952.9 -1.3 67
2019-11-24 13:00:00 10.1 18 Sudoeste 28 Sudoeste 0 953.5 -0.4 73
2019-11-24 12:00:00 8.1 18 Sudoeste 26 Sudoeste 0 954.2 0.6 81
2019-11-24 11:00:00 6.3 19 Sudoeste 28 Sudoeste 0 954.2 1.3 85
2019-11-24 10:00:00 6.2 13 Sudoeste 17 Sudoeste 0 953.9 1.7 89
2019-11-24 09:00:00 5.5 8 Sur 15 Oeste 0 953.6 1.8 94
2019-11-24 08:00:00 4.8 10 Oeste 15 Oeste 0 952.9 1.3 94
2019-11-24 07:00:00 5 11 Sudoeste 18 Sudoeste 0 952.2 1.2 93
2019-11-24 06:00:00 5.5 10 Sudoeste 18 Oeste 0.3 951.8 1.3 93
2019-11-24 05:00:00 5.8 12 Oeste 15 Oeste 0.4 951.6 1.3 93
2019-11-24 04:00:00 5.8 13 Sudoeste 18 Sudoeste 0.3 951 0.9 94
2019-11-24 03:00:00 5.9 13 Sudoeste 22 Sudoeste 0 950.5 0.6 91
2019-11-24 02:00:00 5.5 8 Sur 15 Oeste 0 950.3 1.2 91
2019-11-24 01:00:00 5.9 7 Sudoeste 32 Oeste 1.1 950.1 1.4 90
2019-11-24 00:00:00 6 12 Sudoeste 17 Sudoeste 0 949.9 1.7 94
2019-11-23 23:00:00 6.3 7 Sur 11 Sur 0 949.1 1.3 92
2019-11-23 22:00:00 6.5 9 Oeste 17 Sur 0.6 948.7 1.8 90
2019-11-23 21:00:00 6.8 6 Sudoeste 22 Sudoeste 0 948.2 2.4 85
2019-11-23 20:00:00 7 11 Sudoeste 24 Oeste 0 947.8 2.8 85
2019-11-23 19:00:00 7 10 Sudoeste 28 Oeste 0 946.9 3.2 88
2019-11-23 18:00:00 7.5 14 Sudoeste 22 Sudoeste 0.2 945.8 3 84
2019-11-23 17:00:00 7.8 15 Oeste 24 Oeste 0.3 945 3 86
2019-11-23 16:00:00 8.9 18 Oeste 35 Oeste 0.3 943.7 2.3 81
2019-11-23 15:00:00 7.8 21 Oeste 32 Oeste 0.5 942.8 2 88
2019-11-23 14:00:00 7.9 22 Oeste 48 Oeste 0.9 942 2.5 85
2019-11-23 13:00:00 8.1 14 Oeste 33 Oeste 0 941.4 3.3 82
2019-11-23 12:00:00 7.3 21 Oeste 33 Oeste 0.9 940.8 4.9 88
2019-11-23 11:00:00 6.8 23 Oeste 33 Sudoeste 0.7 939.5 5.6 89
2019-11-23 10:00:00 6.4 25 Oeste 42 Oeste 1.5 938.1 5.6 89
2019-11-23 09:00:00 6.7 29 Oeste 45 Oeste 1.7 935.9 4.7 88
2019-11-23 08:00:00 5.7 18 Sudoeste 37 Sudoeste 2.7 933.9 3.6 93
2019-11-23 07:00:00 6.2 26 Sudoeste 41 Sudoeste 3.1 932.5 3 91
2019-11-23 06:00:00 7.2 21 Sudoeste 33 Sudoeste 0.3 931.2 2.3 86
2019-11-23 05:00:00 7.9 19 Sudoeste 35 Sudoeste 0 930.3 1.9 81
2019-11-23 04:00:00 8.5 13 Sudoeste 42 Sudoeste 0.1 929.5 1.1 79
2019-11-23 03:00:00 9.8 32 Sudoeste 55 Sudoeste 0 928.9 0.8 71
2019-11-23 02:00:00 10.1 32 Sudoeste 52 Sudoeste 0 928.4 -0.1 72
2019-11-23 01:00:00 10.3 34 Sudoeste 55 Sur 0 928.4 -0.3 73
2019-11-23 00:00:00 10.4 41 Sudoeste 65 Sudoeste 0 928.1 -0.5 73
2019-11-22 23:00:00 10.2 29 Sudoeste 54 Sudoeste 0 928.5 0 75
2019-11-22 22:00:00 9.7 28 Sudoeste 54 Sudoeste 0 928.7 0 75
2019-11-22 21:00:00 9.6 24 Sudoeste 55 Sudoeste 0 928.6 -0.1 78
2019-11-22 20:00:00 10.1 28 Sur 45 Sudoeste 0.5 928.5 -0.2 83
2019-11-22 19:00:00 9.4 16 Sudoeste 33 Sur 0 928.7 -0.6 84
2019-11-22 18:00:00 10.1 27 Sur 46 Sur 0.3 928.7 -1.4 83
2019-11-22 17:00:00 10.4 26 Sur 42 Sur 0 928.7 -2.4 80
2019-11-22 16:00:00 8.9 7 Sur 18 Sudoeste 0.7 929.3 -2.7 90
2019-11-22 15:00:00 8.2 8 Norte 37 Sudeste 2 930.1 -3.9 92
2019-11-22 14:00:00 9.5 21 Sudeste 39 Sudeste 0.4 931.1 -4.8 81
2019-11-22 13:00:00 9.8 20 Sudeste 48 Sudeste 0 932 -4.8 75
2019-11-22 12:00:00 9.3 25 Sudeste 42 Sudeste 0 934 -3.8 77
2019-11-22 11:00:00 8.6 24 Sudeste 33 Sudeste 0.5 935.9 -3 83
2019-11-22 10:00:00 8.7 23 Sudeste 39 Sudeste 0 936.8 -3.3 77
2019-11-22 09:00:00 8.6 20 Sudeste 41 Sudeste 0 937.8 -3.3 73
2019-11-22 08:00:00 6.5 4 Este 18 Sur 0 938.9 -3.5 82
2019-11-22 07:00:00 6.2 6 Noroeste 18 Sudeste 0 940.1 -3.1 83
2019-11-22 06:00:00 5 5 Oeste 21 Oeste 0 941.1 -2.5 91
2019-11-22 05:00:00 5.6 9 Sudoeste 18 Oeste 0 942.4 -1.8 87
2019-11-22 04:00:00 5.3 15 Oeste 21 Sudoeste 0 943.2 -- 89
2019-11-22 03:00:00 2.3 4 Oeste 9 Oeste 0 943.6 -- 96
2019-11-22 02:00:00 2.7 5 Oeste -- -- -- 944.2 -- 94
2019-11-22 01:00:00 -- -- -- -- -- -- -- -- --
2019-11-22 00:00:00 -- -- -- -- -- -- -- -- --
2019-11-21 23:00:00 -- -- -- -- -- -- -- -- --
2019-11-21 22:00:00 -- -- -- -- -- -- -- -- --
2019-11-21 21:00:00 -- -- -- -- -- -- -- -- --
2019-11-21 20:00:00 4.3 3 Oeste 15 Sudoeste 0 946.8 0.8 90
2019-11-21 19:00:00 5.5 12 Sudoeste 17 Sudoeste 0 946.4 0.6 87
2019-11-21 18:00:00 7.4 13 Sudoeste 21 Sudoeste 0 946.3 0.9 81
2019-11-21 17:00:00 9.6 14 Sudoeste 24 Sudoeste 0 946 0.2 72
2019-11-21 16:00:00 11.3 13 Sudoeste 26 Sudoeste 0 945.8 -0.4 68
2019-11-21 15:00:00 11.6 10 Sudoeste 24 Sur 0 945.4 -1.4 65
2019-11-21 14:00:00 10.7 13 Sur 26 Sudoeste 0 945.8 -1 69
2019-11-21 13:00:00 9 18 Sudoeste 30 Sudoeste 0 946.2 -0.5 78
2019-11-21 12:00:00 8.6 17 Sudoeste 30 Sudoeste 0 946.8 0.3 77
2019-11-21 11:00:00 9 18 Sudoeste 28 Sudoeste 0 946.8 0.7 77
2019-11-21 10:00:00 7.2 12 Sudoeste 22 Sudoeste 0 946.7 0.5 81
2019-11-21 09:00:00 6.6 15 Oeste 26 Oeste 0 946.5 0.7 83
2019-11-21 08:00:00 -- -- -- -- -- -- -- -- --
2019-11-21 07:00:00 -- -- -- -- -- -- -- -- --
2019-11-21 06:00:00 -- -- -- -- -- -- -- -- --
2019-11-21 05:00:00 -- -- -- -- -- -- -- -- --
2019-11-21 04:00:00 -- -- -- -- -- -- -- -- --
2019-11-21 03:00:00 -- -- -- -- -- -- -- -- --
2019-11-21 02:00:00 -- -- -- -- -- -- -- -- --
2019-11-21 01:00:00 -- -- -- -- -- -- -- -- --
2019-11-21 00:00:00 -- -- -- -- -- -- -- -- --
2019-11-20 23:00:00 -- -- -- -- -- -- -- -- --
2019-11-20 22:00:00 -- -- -- -- -- -- -- -- --
2019-11-20 21:00:00 -- -- -- -- -- -- -- -- --
2019-11-20 20:00:00 -- -- -- -- -- -- -- -- --
2019-11-20 19:00:00 6.6 14 Sudoeste 30 Sur 0 947.1 0 83
2019-11-20 18:00:00 6.1 15 Sudoeste 24 Sudoeste 0 947 -0.2 83
2019-11-20 17:00:00 6.5 15 Sudoeste 24 Sudoeste 0 947.3 -0.7 82
2019-11-20 16:00:00 7 18 Sudoeste 28 Sudoeste 0 947.1 -1.8 80
2019-11-20 15:00:00 10.2 19 Sur 28 Sudoeste 0 947.2 -2.6 62
2019-11-20 14:00:00 9.9 13 Sur 30 Sudoeste 0 948 -2.2 63
2019-11-20 13:00:00 8.3 21 Sudoeste 32 Sudoeste 0 948.9 -1.6 72
2019-11-20 12:00:00 7 19 Sudoeste 26 Sudoeste 0 949.8 -0.7 75
2019-11-20 11:00:00 6.1 14 Sudoeste 22 Sudoeste 0 950.2 -0.2 79
2019-11-20 10:00:00 4.5 15 Oeste 21 Oeste 0 950.5 -0.1 85
2019-11-20 09:00:00 3.1 11 Oeste 17 Oeste 0 950.5 -0.3 90
2019-11-20 08:00:00 2.3 12 Oeste 21 Sudoeste 0 950.4 -0.8 89
2019-11-20 07:00:00 2.9 13 Sudoeste 21 Sudoeste 0 950.6 -1 88
2019-11-20 06:00:00 2.6 10 Sudoeste 15 Sudoeste 0 950.8 -1.1 85
2019-11-20 05:00:00 2.4 5 Oeste 13 Sudoeste 0 951.2 -1 87
2019-11-20 04:00:00 3.1 8 Sur 17 Sudoeste 0 951.6 -1.2 85
2019-11-20 03:00:00 1.4 5 Oeste 9 Norte 0 951.9 -1.3 95
2019-11-20 02:00:00 0.7 3 Sur 13 Sudoeste 0 952.2 -1.5 97
2019-11-20 01:00:00 0.7 4 Nordeste 9 Este 0 952.8 -1 96
2019-11-20 00:00:00 0.9 4 Este 8 Este 0 953.2 -0.6 96
2019-11-19 23:00:00 2.4 4 Oeste 15 Sudoeste 0 953.7 -0.3 90
2019-11-19 22:00:00 2.6 9 Sudoeste 17 Sudoeste 0 953.8 -0.3 91
2019-11-19 21:00:00 3.2 7 Sudoeste 13 Sudoeste 0 953.8 -0.5 91
2019-11-19 20:00:00 3.7 6 Sudoeste 11 Sudoeste 0 954 -0.2 92
2019-11-19 19:00:00 3.9 6 Oeste 11 Sudoeste 0 954.1 -0.4 91
2019-11-19 18:00:00 6.5 6 Sur 13 Sur 0 954.3 -0.7 79
2019-11-19 17:00:00 8.2 7 Sur 17 Sur 0 954.2 -1.6 72
2019-11-19 16:00:00 9.5 10 Sur 18 Sudoeste 0 954.5 -2.1 66
2019-11-19 15:00:00 9.9 11 Sur 18 Sur 0 955 -2.8 68
2019-11-19 14:00:00 7.6 3 Norte 9 Norte 0 955.8 -2.4 84
2019-11-19 13:00:00 5.6 5 Norte 11 Norte 0 956.6 -1.9 92
2019-11-19 12:00:00 3.7 5 Sur 11 Sudoeste 0 957.8 -0.3 99
2019-11-19 11:00:00 2.8 6 Sur 11 Sudoeste 0 958.2 0.3 100
2019-11-19 10:00:00 1.8 5 Sudoeste 9 Sudoeste 0 958.5 0.8 100
2019-11-19 09:00:00 1.7 6 Sudoeste 9 Sudoeste 0 958.1 0.5 99
2019-11-19 08:00:00 1.6 5 Norte 11 Nordeste 0 957.9 0.2 99
2019-11-19 07:00:00 1 6 Norte 9 Nordeste 0 957.7 -0.4 97
2019-11-19 06:00:00 2.9 3 Sudoeste 17 Oeste 0 957.6 -0.6 98
2019-11-19 05:00:00 3.8 3 Sudoeste 8 Noroeste 0 957.7 -0.7 98
2019-11-19 04:00:00 3.6 0 Calma 9 Oeste 0 958.1 -0.6 98
2019-11-19 03:00:00 3.7 5 Oeste 8 Oeste 0 958.2 -0.7 99
2019-11-19 02:00:00 4.3 4 Sur 5 Sur 0 958.4 -0.7 98
2019-11-19 01:00:00 4.5 4 Nordeste 8 Noroeste 0.3 958.7 -0.4 98
2019-11-19 00:00:00 4.5 4 Sudoeste 9 Oeste 0 958.9 -0.1 98
2019-11-18 23:00:00 4.2 0 Calma 8 Oeste 0 959.1 0.7 98
2019-11-18 22:00:00 4.2 4 Sudoeste 9 Norte 0.4 959.1 0.8 97
2019-11-18 21:00:00 4 4 Norte 8 Norte 0 959 1.2 95
2019-11-18 20:00:00 3.8 6 Noroeste 11 Noroeste 0 958.4 1 91
2019-11-18 19:00:00 5.1 5 Oeste 8 Oeste 0 958.3 1.2 90
2019-11-18 18:00:00 5.3 4 Sudoeste 17 Noroeste 0 957.8 1.3 83
2019-11-18 17:00:00 6.6 10 Norte 22 Norte 0 957.4 0.9 74
2019-11-18 16:00:00 7 15 Norte 30 Norte 0 957.1 0.7 75
2019-11-18 15:00:00 6.8 10 Norte 35 Norte 0 956.5 0.2 79
2019-11-18 14:00:00 7.8 15 Norte 32 Noroeste 0 956.5 0.2 77
2019-11-18 13:00:00 7 12 Norte 21 Norte 0 956.4 0.9 81
2019-11-18 12:00:00 6.5 17 Noroeste 24 Noroeste 0 956.3 1.5 85
2019-11-18 11:00:00 5.8 6 Norte 26 Noroeste 0.6 956.3 2.1 92
2019-11-18 10:00:00 5.5 3 Oeste 13 Noroeste 0 955.5 1.8 89
2019-11-18 09:00:00 5 8 Oeste 13 Sudoeste 0 954.8 1.8 91
2019-11-18 08:00:00 4.5 4 Oeste 13 Sur 0 954.2 1.5 90
2019-11-18 07:00:00 4.7 5 Sur 24 Nordeste 0.1 953.7 1.5 91
2019-11-18 06:00:00 4.8 8 Noroeste 13 Noroeste 0 953 1.1 91
2019-11-18 05:00:00 4.9 5 Noroeste 18 Noroeste 0.8 952.7 1.1 91
2019-11-18 04:00:00 4.9 11 Oeste 21 Noroeste 0.4 952.2 1 95
2019-11-18 03:00:00 4.7 7 Sudoeste 11 Oeste 0.2 951.9 1.3 95
2019-11-18 02:00:00 4.8 7 Noroeste 37 Noroeste 0.9 951.6 1.7 91
2019-11-18 01:00:00 5 15 Noroeste 24 Noroeste 0.5 951.2 1.9 92
2019-11-18 00:00:00 5 5 Oeste 24 Noroeste 0.8 950.6 1.8 93
2019-11-17 23:00:00 5 9 Sudoeste 30 Oeste 0.1 949.9 1 92
2019-11-17 22:00:00 5.7 19 Oeste 37 Oeste 0.7 949.3 0.5 87
2019-11-17 21:00:00 5.3 4 Oeste 17 Oeste 0 948.8 -0.3 90
2019-11-17 20:00:00 4.7 11 Oeste 15 Oeste 0 948.9 0 91
2019-11-17 19:00:00 6 9 Oeste 18 Sudoeste 0 948.8 -0.3 87
2019-11-17 18:00:00 7.2 3 Noroeste 9 Norte 0 949.1 0 92
2019-11-17 17:00:00 7.8 6 Sur 24 Sudoeste 0.2 948.9 -0.6 92
2019-11-17 16:00:00 8.5 19 Sudoeste 30 Sudoeste 0 949.1 -0.8 80
2019-11-17 15:00:00 9.4 16 Sudoeste 30 Sur 0 949.1 -1.3 75
2019-11-17 14:00:00 9 15 Sudoeste 30 Sudoeste 0 949.5 -1.4 80
2019-11-17 13:00:00 7.3 22 Sudoeste 32 Sudoeste 0 949.9 -1.6 87
2019-11-17 12:00:00 6.8 24 Sudoeste 33 Sudoeste 0 950.4 -0.7 85
2019-11-17 11:00:00 6.1 13 Sudoeste 18 Sudoeste 0.3 950.9 -0.3 90
2019-11-17 10:00:00 5.1 15 Sudoeste 26 Sudoeste 0.3 951.5 -0.4 88
2019-11-17 09:00:00 4.9 9 Sur 30 Sudoeste 0 951.1 -0.9 84
2019-11-17 08:00:00 4.5 20 Sudoeste 28 Sudoeste 0 951.2 -0.9 86
2019-11-17 07:00:00 4.5 19 Sudoeste 28 Sudoeste 0 951.9 -0.7 86
2019-11-17 06:00:00 4.3 15 Sudoeste 22 Sudoeste 0 952 -1 86
2019-11-17 05:00:00 4.2 14 Sudoeste 21 Sudoeste 0 952.1 -0.9 83
2019-11-17 04:00:00 3.9 11 Sudoeste 17 Sudoeste 0 952.6 -0.8 84
2019-11-17 03:00:00 4 10 Sudoeste 24 Sudoeste 0 953 -0.9 84
2019-11-17 02:00:00 3.6 14 Sudoeste 18 Sudoeste 0 953 -1 87
2019-11-17 01:00:00 4.8 11 Oeste 21 Oeste 0 953.4 -0.5 82
2019-11-17 00:00:00 4.2 9 Sudoeste 17 Sudoeste 0 953.9 -0.2 83
2019-11-16 23:00:00 2.4 12 Sudoeste 15 Sudoeste 0 954 -0.2 86
2019-11-16 22:00:00 3.6 12 Sudoeste 18 Sudoeste 0 953.9 0 81
2019-11-16 21:00:00 3.9 10 Sudoeste 22 Oeste 0 954.1 0.5 79
2019-11-16 20:00:00 5.2 15 Sudoeste 30 Oeste 0 954.2 1.2 76
2019-11-16 19:00:00 6.2 15 Oeste 26 Oeste 0 953.9 1.4 77
2019-11-16 18:00:00 6 16 Oeste 35 Oeste 0 953.6 1.4 79
2019-11-16 17:00:00 6.8 22 Oeste 33 Oeste 0 953 0.6 77
2019-11-16 16:00:00 7.5 24 Oeste 37 Oeste 0 952.5 0 71
2019-11-16 15:00:00 7.2 21 Sudoeste 32 Sudoeste 0 952.2 -0.8 78
2019-11-16 14:00:00 5.8 4 Sudoeste 22 Sudoeste 0.2 952.4 -0.2 88
2019-11-16 13:00:00 4.8 14 Sudoeste 22 Sudoeste 0.5 952.5 0.3 88
2019-11-16 12:00:00 3.7 13 Sudoeste 24 Sudoeste 1.1 953 1 90
2019-11-16 11:00:00 3 20 Sudoeste 32 Sudoeste 0 952.6 1.1 90
2019-11-16 10:00:00 2.5 22 Sudoeste 30 Sudoeste 0 952.2 1 91
2019-11-16 09:00:00 1.1 12 Sudoeste 24 Sudoeste 0 952 1 95
2019-11-16 08:00:00 -0.2 9 Sudoeste 30 Oeste 0 951.5 0.7 98
2019-11-16 07:00:00 -1 0 Calma 11 Sudoeste 0 951.2 0.5 96
2019-11-16 06:00:00 -0.4 0 Calma 9 Sudoeste 0 951 0.6 97
2019-11-16 05:00:00 -0.6 5 Sudoeste 13 Sudoeste 0 950.8 1 97
2019-11-16 04:00:00 -0.9 6 Sudoeste 13 Sudoeste 0 950.7 1.2 97
2019-11-16 03:00:00 -0.1 10 Oeste 15 Oeste 0 950.4 1.5 97
2019-11-16 02:00:00 0.2 4 Sudoeste 9 Oeste 0 949.8 1.3 97
2019-11-16 01:00:00 1 6 Sudoeste 11 Oeste 0 949.5 1.4 97
2019-11-16 00:00:00 1.5 5 Oeste 17 Sur 0 948.9 1.4 95
2019-11-15 23:00:00 2.3 8 Oeste 11 Oeste 0 948.5 1.8 95
2019-11-15 22:00:00 3.2 5 Oeste 11 Oeste 0.1 948.1 2.2 92
2019-11-15 21:00:00 3.3 2 Norte 8 Sudoeste 0.2 947.5 2.3 93
2019-11-15 20:00:00 3.1 0 Calma 9 Norte 0 946.7 1.7 91
2019-11-15 19:00:00 3.1 5 Oeste 9 Oeste 0 945.9 1.2 91
2019-11-15 18:00:00 3.1 0 Calma 11 Oeste 0 945.2 0.9 94
2019-11-15 17:00:00 3.2 5 Oeste 13 Oeste 0.1 945 1.1 93
2019-11-15 16:00:00 3 10 Sudoeste 21 Oeste 2.7 944.7 1.1 93
2019-11-15 15:00:00 2.8 8 Noroeste 24 Oeste 6.1 944.3 1.3 93
2019-11-15 14:00:00 3.6 13 Sudoeste 21 Oeste 0.3 943.9 1.8 94
2019-11-15 13:00:00 3.4 18 Oeste 30 Oeste 0 943.6 2.3 92
2019-11-15 12:00:00 3.6 18 Oeste 30 Oeste 0 943 1.7 94
2019-11-15 11:00:00 4.5 13 Oeste 39 Sudoeste 0 942.1 1.1 90
2019-11-15 10:00:00 3.2 26 Sudoeste 39 Sudoeste 0 941.3 0.6 94
2019-11-15 09:00:00 2.5 19 Sudoeste 32 Sudoeste 0 941.3 0.4 94
2019-11-15 08:00:00 2.4 15 Sudoeste 26 Sudoeste 0 941 0.3 93
2019-11-15 07:00:00 2.1 19 Sudoeste 37 Sudoeste 0 940.7 -0.4 95
2019-11-15 06:00:00 2.1 17 Sudoeste 37 Sudoeste 0 940.9 -0.5 93
2019-11-15 05:00:00 2.5 27 Sudoeste 37 Sudoeste 0 940.7 -0.7 92
2019-11-15 04:00:00 2.8 19 Sudoeste 30 Sudoeste 0 941.1 -0.5 91
2019-11-15 03:00:00 2.3 19 Sudoeste 28 Sudoeste 0 941.4 -0.1 91
2019-11-15 02:00:00 1.5 14 Sudoeste 21 Sudoeste 0 941.4 -0.2 94
2019-11-15 01:00:00 1.7 15 Sudoeste 21 Sudoeste 0 941.6 0.9 94
2019-11-15 00:00:00 2.5 8 Sudoeste 13 Oeste 0 941.5 1.2 90
2019-11-14 23:00:00 3.9 8 Oeste 17 Oeste 0 941.6 1.9 90
2019-11-14 22:00:00 4.1 5 Oeste 17 Noroeste 0 940.7 1.9 91
2019-11-14 21:00:00 3.9 7 Oeste 18 Noroeste 0 940.3 1.8 92
2019-11-14 20:00:00 3.3 8 Oeste 15 Sudoeste 0 939.7 1.8 92
2019-11-14 19:00:00 3.7 13 Sudoeste 22 Sudoeste 0 938.8 0.8 88
2019-11-14 18:00:00 4.6 11 Sudoeste 32 Sudoeste 0 938.5 0 83
2019-11-14 17:00:00 7 13 Sudoeste 26 Oeste 0 937.9 -1 66
2019-11-14 16:00:00 8.3 11 Oeste 35 Sudoeste 0.1 938 -1.5 59
2019-11-14 15:00:00 8.2 15 Oeste 39 Sudoeste 0.6 938.5 -1.9 61
2019-11-14 14:00:00 9.2 27 Oeste 42 Oeste 0.5 938.9 -2.7 57
2019-11-14 13:00:00 8.9 21 Sudoeste 42 Oeste 0.6 939.5 -2.4 62
2019-11-14 12:00:00 7.8 27 Sudoeste 39 Oeste 0.6 940.4 -2.4 74
2019-11-14 11:00:00 6.4 6 Sudoeste 22 Sudoeste 0.6 941.6 -1.7 80
2019-11-14 10:00:00 4.6 13 Sudoeste 22 Sudoeste 0.6 941.9 -1.4 87
2019-11-14 09:00:00 2.3 6 Sudoeste 13 Sur 0.6 942.8 -1.2 95
2019-11-14 08:00:00 2.5 2 Oeste 11 Sudoeste 0.6 943.3 -0.5 95
2019-11-14 07:00:00 2.5 3 Oeste 8 Noroeste 0.6 943.3 -0.6 92
2019-11-14 06:00:00 2.8 0 Calma 13 Norte 0.6 944 0.2 91
2019-11-14 05:00:00 3.5 4 Norte 21 Norte 0.6 943.8 0.1 90
2019-11-14 04:00:00 4.2 9 Norte 32 Noroeste 0.6 943.9 -0.4 91
2019-11-14 03:00:00 5.3 23 Noroeste 42 Norte 0.3 943.8 -1.6 90
2019-11-14 02:00:00 6.8 9 Norte 17 Norte 0 943.7 -2.3 92
2019-11-14 01:00:00 6.2 5 Este 15 Sudoeste 0 944.3 -1.7 96
2019-11-14 00:00:00 5.8 6 Norte 9 Norte 0 945.4 -2.8 97
2019-11-13 23:00:00 6 3 Sur 15 Norte 0 946 -2.7 96
2019-11-13 22:00:00 6.3 5 Sur 9 Sur 0 946 -3.5 97
2019-11-13 21:00:00 5.8 3 Noroeste 9 Norte 0 948.2 -2.5 97
2019-11-13 20:00:00 5.8 4 Nordeste 9 Noroeste 0 948.7 -2.4 95
2019-11-13 19:00:00 6.5 6 Noroeste 8 Oeste 0 949.5 -2.2 93
2019-11-13 18:00:00 8.5 0 Calma 9 Noroeste 0 950.7 -1.7 87
2019-11-13 17:00:00 9.9 7 Noroeste 21 Noroeste 0 951.1 -1.4 79
2019-11-13 16:00:00 10 13 Noroeste 26 Noroeste 0 951.7 -1 80
2019-11-13 15:00:00 11.4 15 Noroeste 30 Noroeste 0 952.4 -0.6 70
2019-11-13 14:00:00 11 24 Noroeste 37 Noroeste 0.3 952.5 0 71
2019-11-13 13:00:00 11.1 17 Noroeste 30 Noroeste 0.6 952.7 0.8 74
2019-11-13 12:00:00 10.2 15 Noroeste 26 Noroeste 0.6 953 2.2 81
2019-11-13 11:00:00 9.9 13 Noroeste 24 Noroeste 0.6 952.5 2.7 83
2019-11-13 10:00:00 8.6 6 Noroeste 13 Oeste 0.6 951.9 3.6 92
2019-11-13 09:00:00 8.2 4 Sudoeste 30 Norte 0.7 950.8 3.5 93
2019-11-13 08:00:00 8.1 14 Norte 24 Norte 0.8 949.8 3.5 94
2019-11-13 07:00:00 7.8 6 Noroeste 13 Noroeste 1 948.3 2.3 96
2019-11-13 06:00:00 7.6 6 Oeste 11 Norte 1 947.3 1.9 97
2019-11-13 05:00:00 7.5 2 Este 21 Norte 0.7 946.3 0.7 97
2019-11-13 04:00:00 7.6 13 Norte 18 Norte 0.5 946 -0.2 97
2019-11-13 03:00:00 7.4 9 Norte 11 Norte 0 945.4 -1 97
2019-11-13 02:00:00 7.6 6 Nordeste 13 Sur 0 945.6 -2.4 95
2019-11-13 01:00:00 7.8 10 Sur 15 Sur 0.2 946.2 -2.6 94
2019-11-13 00:00:00 7.4 6 Oeste 15 Sudoeste 0.4 946.4 -3 95
2019-11-12 23:00:00 7.3 11 Sudoeste 18 Sudoeste 0.8 948 -2.1 95
2019-11-12 22:00:00 7.5 15 Sudoeste 24 Sudoeste 1.2 948.8 -1.5 92
2019-11-12 21:00:00 7.5 11 Sudoeste 22 Sudoeste 1.2 949.4 -1.3 92
2019-11-12 20:00:00 7.9 15 Sudoeste 21 Sudoeste 0.8 950.1 -1.1 92
2019-11-12 19:00:00 8.8 8 Sudoeste 17 Oeste 0.3 950.3 -1.7 86
2019-11-12 18:00:00 9.4 5 Sudoeste 11 Sudoeste 0 950.7 -1.8 79
2019-11-12 17:00:00 10.6 9 Sudoeste 26 Sudoeste 0 951.2 -2.2 68
2019-11-12 16:00:00 11.5 15 Sudoeste 28 Oeste 0 952 -2.3 64
2019-11-12 15:00:00 12.1 12 Noroeste 26 Noroeste 0 952.5 -3 65
2019-11-12 14:00:00 11.8 18 Noroeste 28 Noroeste 0 953.4 -2.4 65
2019-11-12 13:00:00 11.9 12 Oeste 26 Oeste 0 954.3 -2 70
2019-11-12 12:00:00 10.2 7 Sur 21 Sudoeste 0 955.5 -0.7 75
2019-11-12 11:00:00 7.5 10 Sudoeste 17 Sudoeste 0 955.8 -0.5 86
2019-11-12 10:00:00 6.6 14 Sudoeste 24 Sudoeste 0 956.3 0.3 89
2019-11-12 09:00:00 5.5 5 Sur 8 Sur 0 956.2 -0.4 95
2019-11-12 08:00:00 5.1 6 Sur 21 Oeste 0 956.3 -0.6 91
2019-11-12 07:00:00 4.9 11 Sudoeste 17 Oeste 0 956 -1 94
2019-11-12 06:00:00 4.9 9 Oeste 15 Oeste 0 956.6 -1.1 97
2019-11-12 05:00:00 4.8 4 Sudoeste 9 Oeste 0 956.9 -1.1 96
2019-11-12 04:00:00 4.9 0 Calma 9 Sur 0 957 -1.5 95
2019-11-12 03:00:00 4.7 6 Sur 13 Sudoeste 0 957.7 -1.1 94
2019-11-12 02:00:00 5.2 8 Sudoeste 15 Sudoeste 0.2 958 -1.3 92
2019-11-12 01:00:00 5.2 4 Sudoeste 11 Sudoeste 0.6 958.5 -1 93
2019-11-12 00:00:00 4.7 8 Sudoeste 9 Sudoeste 0.6 958.8 -0.5 95
2019-11-11 23:00:00 4.7 4 Sudoeste 9 Sudoeste 0.6 959.3 0.2 95
2019-11-11 22:00:00 6.2 3 Este 28 Noroeste 0.6 959.5 0.8 93
2019-11-11 21:00:00 6.6 15 Norte 26 Noroeste 0.5 959.3 0.8 90
2019-11-11 20:00:00 6.7 4 Noroeste 21 Noroeste 0.5 959.1 0.9 89
2019-11-11 19:00:00 6.8 9 Oeste 17 Oeste 0.6 958.7 0.9 90
2019-11-11 18:00:00 7 6 Noroeste 18 Noroeste 0.2 958.5 1.5 90
2019-11-11 17:00:00 8.1 8 Norte 22 Oeste 0 958.2 1.9 81
2019-11-11 16:00:00 8.7 8 Noroeste 46 Noroeste 0 957.8 2.4 77
2019-11-11 15:00:00 8.1 36 Noroeste 50 Noroeste 0.3 957 1.9 87
2019-11-11 14:00:00 9.2 29 Noroeste 67 Noroeste 0.6 956.3 0.8 84
2019-11-11 13:00:00 9 17 Noroeste 30 Noroeste 0.6 955.4 -0.2 96
2019-11-11 12:00:00 8.1 18 Sudoeste 28 Sudoeste 0.6 955.1 -0.8 93
2019-11-11 11:00:00 6.1 18 Sudoeste 28 Sudoeste 0.5 955.5 -0.2 95
2019-11-11 10:00:00 5.5 15 Sudoeste 22 Sudoeste 0.1 955.6 -0.3 97
2019-11-11 09:00:00 4.7 12 Sudoeste 15 Sudoeste 0 955.9 -0.8 96
2019-11-11 08:00:00 3.9 4 Sur 11 Sur 0 955.7 -1.3 98
2019-11-11 07:00:00 3.6 3 Sudeste 8 Este 0 955.9 -1.5 98
2019-11-11 06:00:00 3.5 8 Este 11 Este 0.2 956.7 -1.1 98
2019-11-11 05:00:00 3.6 5 Este 9 Nordeste 0.6 957 -1 98
2019-11-11 04:00:00 3.6 5 Este 11 Este 0.6 957.4 -1.1 97
2019-11-11 03:00:00 3.9 3 Sudoeste 17 Sudoeste 0.6 957.8 -0.8 96
2019-11-11 02:00:00 4 12 Sudoeste 22 Sur 0.6 958 0.2 95
2019-11-11 01:00:00 3.9 14 Sudoeste 22 Sudoeste 0.6 958.5 0.4 95
2019-11-11 00:00:00 3.6 15 Sudoeste 30 Sudoeste 0.6 958.6 0.4 94
2019-11-10 23:00:00 3.3 17 Sudoeste 30 Sudoeste 0.6 957.8 -0.1 95
2019-11-10 22:00:00 3.4 14 Sudoeste 24 Sudoeste 0.6 958.1 -0.3 96
2019-11-10 21:00:00 3 18 Sudoeste 28 Sudoeste 0.6 958.2 0.8 95
2019-11-10 20:00:00 2.4 12 Sudoeste 17 Sudoeste 0.6 957.9 0.6 96
2019-11-10 19:00:00 2.9 5 Oeste 15 Sudoeste 0.6 958.4 1.7 95
2019-11-10 18:00:00 2.6 8 Sudoeste 18 Sudoeste 1.2 957.4 1.5 96
2019-11-10 17:00:00 2.9 4 Sur 9 Sur 1.2 957.3 1.9 95
2019-11-10 16:00:00 3.3 9 Este 18 Este 1.6 956.7 1.1 95
2019-11-10 15:00:00 4.5 9 Sudoeste 21 Oeste 1.5 955.9 -0.6 92
2019-11-10 14:00:00 3.7 22 Oeste 37 Sudoeste 0.6 955.4 -1.1 92
2019-11-10 13:00:00 3 25 Sudoeste 35 Sudoeste 0.6 955.6 -0.6 94
2019-11-10 12:00:00 1.9 11 Sudoeste 21 Sudoeste 2.4 956.5 0.1 97
2019-11-10 11:00:00 1.5 15 Sudoeste 30 Sudoeste 4.5 956.5 0.9 95
2019-11-10 10:00:00 2.7 14 Sur 18 Sur 1.7 956.2 0.9 95
2019-11-10 09:00:00 2.6 13 Oeste 30 Oeste 3.6 956.4 0.7 93
2019-11-10 08:00:00 4 12 Sur 21 Sur 1.3 955.6 -0.4 93
2019-11-10 07:00:00 3.8 13 Sudoeste 21 Sudoeste 2.1 955.3 -1.3 93
2019-11-10 06:00:00 3.8 15 Sudoeste 22 Sudoeste 0.9 955.7 -0.7 93
2019-11-10 05:00:00 4.1 12 Sudoeste 17 Sudoeste 0.7 956 -0.8 93
2019-11-10 04:00:00 4.4 3 Sudoeste 21 Sudoeste 0.6 956.6 0.5 89
2019-11-10 03:00:00 4.2 15 Sudoeste 33 Noroeste 0.9 956.4 0 91
2019-11-10 02:00:00 5 28 Noroeste 46 Noroeste 1.7 956.8 0.7 89
2019-11-10 01:00:00 5.4 13 Oeste 24 Norte 0.8 956.1 0.2 87
2019-11-10 00:00:00 6 13 Noroeste 39 Norte 2.5 956.4 0.5 90
2019-11-09 23:00:00 5.8 4 Oeste 22 Oeste 0 956.1 0.9 89
2019-11-09 22:00:00 5.5 14 Norte 50 Noroeste 3.3 955.9 1.3 90
2019-11-09 21:00:00 6 23 Noroeste 54 Noroeste 2.8 955.9 1.1 90
2019-11-09 20:00:00 8 25 Noroeste 42 Noroeste 0.4 955.2 0.8 92
2019-11-09 19:00:00 8.1 3 Este 9 Sudeste 0.2 954.6 0.1 94
2019-11-09 18:00:00 8.5 8 Este 21 Oeste 1 954.8 0.1 94
2019-11-09 17:00:00 9.4 8 Oeste 28 Sudoeste 0 954.4 -0.9 85
2019-11-09 16:00:00 9.7 13 Sudoeste 35 Sudoeste 0 954.5 -2.2 80
2019-11-09 15:00:00 8.8 23 Sudoeste 41 Sudoeste 0.2 954.7 -3 82
2019-11-09 14:00:00 8.8 33 Sudoeste 45 Sudoeste 0 955.3 -2.4 80
2019-11-09 13:00:00 7.5 22 Sudoeste 33 Sudoeste 0.3 956.7 -1.3 87
2019-11-09 12:00:00 7.3 19 Sudoeste 32 Sudoeste 0.5 957.7 -0.6 85
2019-11-09 11:00:00 8.3 22 Sudoeste 32 Sudoeste 0 957.7 -0.7 79
2019-11-09 10:00:00 7.2 18 Sur 28 Sur 0 958 -0.9 85
2019-11-09 09:00:00 6.5 13 Sudoeste 26 Sudoeste 0 958.3 -0.5 89
2019-11-09 08:00:00 5.5 17 Sudoeste 26 Sudoeste 0.1 958.4 -0.4 93
2019-11-09 07:00:00 5.6 12 Sudoeste 24 Sudoeste 0.2 958.9 0.2 95
2019-11-09 06:00:00 5.5 15 Sudoeste 24 Sudoeste 0.8 958.8 0.3 95
2019-11-09 05:00:00 5.5 16 Sudoeste 26 Sudoeste 1.3 958.8 0.4 95
2019-11-09 04:00:00 5.8 14 Sudoeste 21 Sudoeste 0.6 958.7 -0.2 94
2019-11-09 03:00:00 5.9 12 Oeste 21 Oeste 1.4 958.5 -0.2 93
2019-11-09 02:00:00 5.6 14 Sudoeste 32 Oeste 0 958.4 -0.3 93
2019-11-09 01:00:00 5.6 10 Sudoeste 26 Noroeste 0.4 958.9 0.8 94
2019-11-09 00:00:00 6.1 19 Noroeste 42 Noroeste 0.9 958.7 1.3 89
2019-11-08 23:00:00 5.9 14 Oeste 26 Sudoeste 0.8 958.7 2 89
2019-11-08 22:00:00 5.9 17 Sudoeste 37 Noroeste 0.6 958.1 2.1 92
2019-11-08 21:00:00 6.2 22 Noroeste 42 Oeste 2.2 957.4 2.7 90
2019-11-08 20:00:00 6 26 Oeste 50 Noroeste 0.7 956.7 2.5 88
2019-11-08 19:00:00 6.3 30 Noroeste 48 Noroeste 1.4 956 2.4 88
2019-11-08 18:00:00 6.4 28 Noroeste 50 Noroeste 3.1 954.7 2.3 90
2019-11-08 17:00:00 5.3 18 Oeste 37 Oeste 4.2 954.2 2.3 93
2019-11-08 16:00:00 5.1 19 Oeste 42 Oeste 4.3 953.6 1.6 94
2019-11-08 15:00:00 5 33 Oeste 52 Oeste 2.2 952.4 0.2 90
2019-11-08 14:00:00 5.1 30 Oeste 42 Oeste 2 951.9 0.3 89
2019-11-08 13:00:00 5.2 22 Oeste 42 Oeste 2.8 952 0.5 88
2019-11-08 12:00:00 5.7 24 Oeste 50 Oeste 2.1 952.2 1 86
2019-11-08 11:00:00 5.2 24 Sudoeste 35 Sudoeste 0.2 951.6 1.5 90
2019-11-08 10:00:00 5.4 22 Sudoeste 35 Sudoeste 0.1 951.5 1.5 86
2019-11-08 09:00:00 4.7 22 Sudoeste 33 Sudoeste 0 951.2 1.1 86
2019-11-08 08:00:00 4 24 Sudoeste 35 Sudoeste 0 950.1 0.5 88
2019-11-08 07:00:00 4.1 18 Sudoeste 28 Sudoeste 0.2 950 0.7 88
2019-11-08 06:00:00 3.9 17 Sudoeste 28 Sudoeste 0.6 950.1 1 90
2019-11-08 05:00:00 4.1 18 Sudoeste 28 Sudoeste 0 949.6 0.7 85
2019-11-08 04:00:00 4.3 20 Sudoeste 32 Sudoeste 0 949.3 0.3 82
2019-11-08 03:00:00 4.2 17 Sudoeste 26 Sudoeste 0 949.1 -0.1 82
2019-11-08 02:00:00 4.1 17 Sudoeste 32 Sudoeste 0 948.9 -0.5 82
2019-11-08 01:00:00 3.9 18 Sudoeste 26 Oeste 0 949 -0.5 83
2019-11-08 00:00:00 4.3 17 Sudoeste 26 Sudoeste 0 949.2 -0.1 87